Time;durP1;ratioP1;P1;durP2;ratioP2;P2;SDS_P1;SDS_P2;PMS_P1;PMS_P2;Temp;Humidity;BMP_temperature;BMP_pressure;BME280_temperature;BME280_humidity;BME280_pressure;Samples;Min_cycle;Max_cycle;Signal;HPM_P1;HPM_P2
2023/09/28 00:00:53;;;;;;;3.97;2.53;;;;;;;13.38;100.00;96426.09;5081077;28;20922;-68
2023/09/28 00:03:19;;;;;;;4.33;2.60;;;;;;;13.32;100.00;96429.50;5078539;28;20310;-69
2023/09/28 00:05:46;;;;;;;3.50;2.43;;;;;;;13.27;100.00;96429.25;5080224;28;20302;-71
2023/09/28 00:08:12;;;;;;;5.00;2.80;;;;;;;13.28;100.00;96441.47;5079862;28;20225;-70
2023/09/28 00:10:40;;;;;;;5.70;2.90;;;;;;;13.40;100.00;96438.97;5080456;28;20285;-69
2023/09/28 00:13:07;;;;;;;4.47;2.83;;;;;;;13.27;100.00;96439.84;5078984;28;20693;-69
2023/09/28 00:15:32;;;;;;;4.50;2.80;;;;;;;13.24;100.00;96441.03;5080213;28;20222;-69
2023/09/28 00:17:59;;;;;;;3.67;2.60;;;;;;;13.23;100.00;96443.88;5080214;28;20674;-70
2023/09/28 00:20:25;;;;;;;4.78;2.58;;;;;;;13.24;100.00;96435.72;5079235;28;20225;-68
2023/09/28 00:22:52;;;;;;;4.93;3.40;;;;;;;13.25;100.00;96441.84;5080264;28;20232;-71
2023/09/28 00:25:19;;;;;;;3.93;2.60;;;;;;;13.26;100.00;96433.69;5078273;28;20404;-69
2023/09/28 00:27:50;;;;;;;4.43;2.90;;;;;;;13.37;100.00;96427.13;5079245;28;20212;-69
2023/09/28 00:30:19;;;;;;;4.13;2.92;;;;;;;13.21;100.00;96435.28;5081397;28;20251;-69
2023/09/28 00:32:45;;;;;;;5.43;3.33;;;;;;;13.23;100.00;96428.78;5081847;28;20772;-69
2023/09/28 00:35:11;;;;;;;3.77;2.60;;;;;;;13.18;100.00;96428.53;5080654;28;20211;-72
2023/09/28 00:37:38;;;;;;;3.83;2.50;;;;;;;13.18;100.00;96428.53;5082573;28;20211;-68
2023/09/28 00:40:08;;;;;;;8.27;3.07;;;;;;;13.06;100.00;96422.13;5081225;28;20208;-68
2023/09/28 00:42:35;;;;;;;5.20;2.63;;;;;;;13.05;100.00;96419.66;5081245;28;20592;-73
2023/09/28 00:45:02;;;;;;;4.93;3.30;;;;;;;13.19;100.00;96421.44;5082131;28;20204;-73
2023/09/28 00:47:29;;;;;;;4.80;2.95;;;;;;;13.15;100.00;96423.63;5080575;28;20196;-68
2023/09/28 00:49:55;;;;;;;7.17;3.07;;;;;;;13.17;100.00;96428.72;5081458;28;20294;-70
2023/09/28 00:52:23;;;;;;;4.77;3.13;;;;;;;13.18;100.00;96425.09;5081622;28;20200;-70
2023/09/28 00:54:49;;;;;;;4.47;3.13;;;;;;;13.27;100.00;96429.25;5081176;28;20204;-69
2023/09/28 00:57:17;;;;;;;5.15;3.30;;;;;;;13.18;100.00;96420.59;5079734;28;20207;-69
2023/09/28 00:59:43;;;;;;;4.80;2.97;;;;;;;12.96;100.00;96420.78;5081231;28;20215;-72
2023/09/28 01:02:11;;;;;;;4.10;2.70;;;;;;;13.10;100.00;96414.63;5080834;28;20228;-69
2023/09/28 01:04:36;;;;;;;6.30;3.23;;;;;;;13.02;100.00;96422.66;5081217;28;20210;-71
2023/09/28 01:07:04;;;;;;;6.07;3.47;;;;;;;13.12;100.00;96420.53;5081817;28;20208;-71
2023/09/28 01:09:30;;;;;;;3.80;2.70;;;;;;;13.01;100.00;96423.69;5081558;28;20197;-68
2023/09/28 01:11:56;;;;;;;5.07;3.13;;;;;;;13.03;100.00;96425.13;5082037;28;20216;-71
2023/09/28 01:14:22;;;;;;;6.90;3.50;;;;;;;13.20;100.00;96428.34;5079962;28;21240;-72
2023/09/28 01:16:49;;;;;;;5.30;3.43;;;;;;;13.14;100.00;96427.28;5081224;28;20200;-68
2023/09/28 01:19:16;;;;;;;7.33;2.83;;;;;;;13.15;100.00;96420.16;5079324;28;20661;-68
2023/09/28 01:21:44;;;;;;;4.23;2.80;;;;;;;13.08;100.00;96430.66;5080164;28;20234;-72
2023/09/28 01:24:11;;;;;;;7.07;2.70;;;;;;;12.79;100.00;96430.72;5080074;28;20203;-68
2023/09/28 01:26:39;;;;;;;5.20;2.80;;;;;;;12.85;100.00;96431.81;5080753;28;20293;-72
2023/09/28 01:29:05;;;;;;;6.73;3.70;;;;;;;12.93;100.00;96426.44;5080564;28;20204;-70
2023/09/28 01:31:32;;;;;;;5.47;3.53;;;;;;;12.85;100.00;96432.66;5080776;28;20226;-71
2023/09/28 01:33:58;;;;;;;6.50;2.92;;;;;;;12.68;100.00;96433.03;5079869;28;20210;-70
2023/09/28 01:36:24;;;;;;;5.43;3.30;;;;;;;12.67;100.00;96433.22;5080161;28;20895;-74
2023/09/28 01:39:06;;;;;;;6.00;3.00;;;;;;;13.07;100.00;96433.50;5081690;28;20204;-69
2023/09/28 01:41:34;;;;;;;6.53;3.00;;;;;;;12.99;100.00;96441.56;5079232;28;20227;-68
2023/09/28 01:44:00;;;;;;;4.90;2.93;;;;;;;12.68;100.00;96448.06;5080917;28;20249;-69
2023/09/28 01:46:26;;;;;;;4.40;2.80;;;;;;;12.62;100.00;96444.34;5079715;28;20211;-70
2023/09/28 01:48:52;;;;;;;4.10;2.70;;;;;;;12.66;100.00;96448.25;5082084;28;20204;-71
2023/09/28 01:51:18;;;;;;;6.90;3.93;;;;;;;12.69;100.00;96439.13;5079650;28;20230;-71
2023/09/28 01:53:44;;;;;;;7.40;3.70;;;;;;;12.67;100.00;96446.44;5080961;28;20574;-72
2023/09/28 01:56:11;;;;;;;7.00;2.80;;;;;;;12.56;100.00;96438.97;5080477;28;20203;-72
2023/09/28 01:58:37;;;;;;;4.87;3.23;;;;;;;12.65;100.00;96443.16;5080023;28;20290;-69
2023/09/28 02:01:04;;;;;;;5.07;3.07;;;;;;;12.64;100.00;96437.06;5081519;28;20777;-69
2023/09/28 02:03:30;;;;;;;4.90;3.23;;;;;;;12.51;100.00;96444.81;5081880;28;20234;-70
2023/09/28 02:05:56;;;;;;;4.43;3.07;;;;;;;12.69;100.00;96444.41;5081633;28;20204;-70
2023/09/28 02:08:22;;;;;;;5.97;3.30;;;;;;;12.64;100.00;96454.72;5081935;28;20200;-71
2023/09/28 02:10:48;;;;;;;4.97;3.17;;;;;;;12.62;100.00;96452.25;5082237;28;20784;-67
2023/09/28 02:13:14;;;;;;;4.20;3.00;;;;;;;12.71;100.00;96448.50;5081317;28;20206;-71
2023/09/28 02:15:43;;;;;;;4.37;2.77;;;;;;;12.85;100.00;96456.44;5081234;28;20196;-69
2023/09/28 02:18:09;;;;;;;6.73;4.20;;;;;;;12.65;100.00;96449.25;5080896;28;20195;-69
2023/09/28 02:20:35;;;;;;;4.90;3.50;;;;;;;12.67;100.00;96449.88;5080486;28;20242;-68
2023/09/28 02:23:01;;;;;;;5.40;3.53;;;;;;;12.68;100.00;96446.25;5079714;28;20234;-69
2023/09/28 02:25:28;;;;;;;5.37;3.47;;;;;;;12.65;100.00;96451.88;5078050;28;20215;-70
2023/09/28 02:27:53;;;;;;;6.17;3.10;;;;;;;12.65;100.00;96448.44;5080140;28;20214;-68
2023/09/28 02:30:22;;;;;;;7.37;3.93;;;;;;;12.77;100.00;96450.44;5078991;28;20624;-69
2023/09/28 02:32:50;;;;;;;5.23;3.53;;;;;;;12.95;100.00;96448.22;5080597;28;20257;-70
2023/09/28 02:35:17;;;;;;;6.17;3.20;;;;;;;12.85;100.00;96442.38;5078882;28;20208;-73
2023/09/28 02:37:44;;;;;;;5.93;3.57;;;;;;;12.95;100.00;96445.59;5080173;28;20933;-68
2023/09/28 02:40:12;;;;;;;7.00;3.20;;;;;;;12.92;100.00;96443.31;5077663;28;20234;-70
2023/09/28 02:42:38;;;;;;;6.07;3.93;;;;;;;12.79;100.00;96451.03;5078150;28;20227;-71
2023/09/28 02:45:11;;;;;;;6.07;2.87;;;;;;;12.80;100.00;96448.25;5079722;28;20206;-69
2023/09/28 02:47:37;;;;;;;5.10;3.13;;;;;;;12.65;100.00;96449.25;5077380;28;20195;-71
2023/09/28 02:50:08;;;;;;;4.60;2.93;;;;;;;12.59;100.00;96452.66;5079039;28;20702;-72
2023/09/28 02:52:35;;;;;;;6.13;3.00;;;;;;;12.45;100.00;96448.19;5076157;28;20201;-72
2023/09/28 02:55:02;;;;;;;5.13;3.63;;;;;;;12.52;100.00;96457.00;5079264;28;20598;-69
2023/09/28 02:57:28;;;;;;;5.67;3.07;;;;;;;12.48;100.00;96458.38;5078197;28;20744;-69
2023/09/28 02:59:54;;;;;;;5.23;3.10;;;;;;;12.52;100.00;96461.47;5081117;28;20292;-69
2023/09/28 03:02:20;;;;;;;5.60;2.97;;;;;;;12.46;100.00;96464.84;5077569;28;20247;-69
2023/09/28 03:04:47;;;;;;;4.70;2.83;;;;;;;12.36;100.00;96462.50;5079820;28;20199;-69
2023/09/28 03:07:13;;;;;;;6.77;3.33;;;;;;;12.47;100.00;96467.31;5078743;28;20210;-70
2023/09/28 03:09:40;;;;;;;5.23;2.97;;;;;;;12.34;100.00;96467.13;5078790;28;20200;-73
2023/09/28 03:12:07;;;;;;;6.73;3.70;;;;;;;12.41;100.00;96464.56;5080040;28;20708;-72
2023/09/28 03:14:32;;;;;;;5.13;3.33;;;;;;;12.37;100.00;96463.31;5077632;28;20677;-68
2023/09/28 03:16:59;;;;;;;5.70;3.27;;;;;;;12.37;100.00;96477.34;5079469;28;20204;-68
2023/09/28 03:19:25;;;;;;;5.13;3.13;;;;;;;12.27;100.00;96466.22;5077011;28;20208;-69
2023/09/28 03:21:53;;;;;;;4.97;3.17;;;;;;;12.32;100.00;96466.50;5078659;28;20715;-71
2023/09/28 03:24:20;;;;;;;4.87;3.20;;;;;;;12.51;100.00;96463.31;5076992;28;20210;-73
2023/09/28 03:26:47;;;;;;;7.27;3.80;;;;;;;12.46;100.00;96470.97;5078789;28;20208;-70
2023/09/28 03:29:12;;;;;;;5.77;3.33;;;;;;;12.45;100.00;96471.97;5078616;28;20204;-71
2023/09/28 03:31:39;;;;;;;6.87;3.97;;;;;;;12.54;100.00;96467.44;5078112;28;20724;-72
2023/09/28 03:34:06;;;;;;;6.83;3.30;;;;;;;12.67;100.00;96463.09;5078396;28;20203;-69
2023/09/28 03:36:34;;;;;;;5.87;3.60;;;;;;;12.57;100.00;96467.84;5077267;28;20214;-71
2023/09/28 03:39:01;;;;;;;6.73;4.00;;;;;;;12.62;100.00;96468.13;5078526;28;20242;-72
2023/09/28 03:41:29;;;;;;;7.73;4.23;;;;;;;12.73;100.00;96472.97;5078568;28;20220;-68
2023/09/28 03:43:55;;;;;;;6.03;3.63;;;;;;;12.63;100.00;96471.63;5078545;28;20296;-72
2023/09/28 03:46:22;;;;;;;6.20;3.53;;;;;;;12.65;100.00;96470.41;5078138;28;20208;-70
2023/09/28 03:48:48;;;;;;;6.80;3.67;;;;;;;12.72;100.00;96473.97;5078529;28;20199;-67
2023/09/28 03:51:16;;;;;;;8.33;4.23;;;;;;;12.71;100.00;96469.66;5078576;28;20223;-70
2023/09/28 03:53:42;;;;;;;8.43;4.37;;;;;;;12.69;100.00;96476.16;5078911;28;20214;-71
2023/09/28 03:56:09;;;;;;;7.00;4.00;;;;;;;12.78;100.00;96468.75;5078504;28;20784;-67
2023/09/28 03:58:37;;;;;;;7.47;3.83;;;;;;;12.92;100.00;96473.22;5077743;28;20210;-68
2023/09/28 04:01:07;;;;;;;6.83;3.70;;;;;;;12.70;100.00;96472.50;5078355;28;20228;-69
2023/09/28 04:03:34;;;;;;;4.40;3.10;;;;;;;12.65;100.00;96461.66;5077873;28;20646;-71
2023/09/28 04:06:00;;;;;;;8.50;3.47;;;;;;;12.61;100.00;96479.69;5082131;28;20203;-68
2023/09/28 04:08:27;;;;;;;7.20;4.00;;;;;;;12.60;100.00;96480.72;5080280;28;20211;-69
2023/09/28 04:10:55;;;;;;;7.43;4.17;;;;;;;12.62;100.00;96475.25;5079873;28;20226;-69
2023/09/28 04:13:21;;;;;;;7.03;3.70;;;;;;;12.70;100.00;96475.97;5079059;28;20212;-69
2023/09/28 04:15:49;;;;;;;7.70;3.83;;;;;;;12.78;100.00;96475.88;5078402;28;20665;-69
2023/09/28 04:18:16;;;;;;;8.90;3.80;;;;;;;12.67;100.00;96476.34;5080275;28;20203;-69
2023/09/28 04:20:42;;;;;;;6.57;3.47;;;;;;;12.66;100.00;96482.63;5078742;28;20633;-69
2023/09/28 04:23:09;;;;;;;5.50;3.53;;;;;;;12.66;100.00;96472.03;5079744;28;20228;-69
2023/09/28 04:25:35;;;;;;;8.53;3.90;;;;;;;12.66;100.00;96472.03;5077155;28;20212;-69
2023/09/28 04:28:02;;;;;;;7.40;3.67;;;;;;;12.66;100.00;96466.75;5079441;28;20199;-69
2023/09/28 04:30:28;;;;;;;9.27;3.73;;;;;;;12.57;100.00;96467.84;5078523;28;20223;-69
2023/09/28 04:32:56;;;;;;;6.37;3.27;;;;;;;12.65;100.00;96469.59;5079433;28;20583;-69
2023/09/28 04:35:23;;;;;;;5.77;3.27;;;;;;;12.45;100.00;96471.97;5077858;28;20203;-69
2023/09/28 04:37:49;;;;;;;6.60;3.67;;;;;;;12.43;100.00;96479.25;5078683;28;20207;-69
2023/09/28 04:40:16;;;;;;;9.17;4.27;;;;;;;12.45;100.00;96485.19;5077715;28;20344;-69
2023/09/28 04:42:44;;;;;;;5.93;3.70;;;;;;;12.42;100.00;96477.63;5077863;28;20219;-69
2023/09/28 04:45:11;;;;;;;7.13;4.00;;;;;;;12.61;100.00;96473.59;5077958;28;20273;-69
2023/09/28 04:47:38;;;;;;;6.73;3.97;;;;;;;12.52;100.00;96480.78;5077864;28;20747;-69
2023/09/28 04:50:07;;;;;;;7.50;4.03;;;;;;;12.60;100.00;96488.66;5079025;28;20580;-69
2023/09/28 04:52:33;;;;;;;10.13;4.73;;;;;;;12.49;100.00;96486.47;5077476;28;20225;-69
2023/09/28 04:55:01;;;;;;;8.60;4.07;;;;;;;12.53;100.00;96487.72;5078272;28;20203;-69
2023/09/28 04:57:27;;;;;;;9.40;4.33;;;;;;;12.38;100.00;96494.84;5077525;28;20227;-69
2023/09/28 04:59:55;;;;;;;6.93;4.30;;;;;;;12.49;100.00;96489.09;5078982;28;20290;-69
2023/09/28 05:02:21;;;;;;;7.93;4.27;;;;;;;12.49;100.00;96496.22;5078290;28;20215;-69
2023/09/28 05:04:48;;;;;;;8.13;4.37;;;;;;;12.29;100.00;96501.19;5077742;28;20216;-69
2023/09/28 05:07:16;;;;;;;5.97;3.73;;;;;;;12.60;100.00;96499.22;5078097;28;20215;-70
2023/09/28 05:09:44;;;;;;;7.90;4.43;;;;;;;12.49;100.00;96499.69;5078077;28;20209;-70
2023/09/28 05:12:11;;;;;;;9.07;4.07;;;;;;;12.52;100.00;96503.78;5078296;28;20227;-70
2023/09/28 05:14:38;;;;;;;8.40;4.40;;;;;;;12.53;100.00;96500.94;5076818;28;20682;-70
2023/09/28 05:17:04;;;;;;;8.40;4.70;;;;;;;12.53;100.00;96500.13;5077135;28;20200;-70
2023/09/28 05:19:31;;;;;;;8.03;4.27;;;;;;;12.68;100.00;96493.84;5078395;28;20204;-70
2023/09/28 05:21:57;;;;;;;8.17;4.50;;;;;;;12.68;100.00;96503.56;5076764;28;21026;-70
2023/09/28 05:24:25;;;;;;;8.47;4.67;;;;;;;12.71;100.00;96506.69;5077528;28;20228;-70
2023/09/28 05:26:52;;;;;;;10.20;4.20;;;;;;;12.66;100.00;96509.06;5076500;28;20211;-70
2023/09/28 05:29:18;;;;;;;8.57;4.97;;;;;;;12.72;100.00;96512.81;5077981;28;20207;-70
2023/09/28 05:31:46;;;;;;;9.87;5.00;;;;;;;12.81;100.00;96513.31;5076216;28;20987;-70
2023/09/28 05:34:13;;;;;;;7.00;4.23;;;;;;;12.92;100.00;96512.91;5078242;28;20200;-70
2023/09/28 05:36:39;;;;;;;7.17;3.93;;;;;;;12.93;100.00;96522.50;5075973;28;20564;-70
2023/09/28 05:39:08;;;;;;;7.50;4.03;;;;;;;12.91;100.00;96518.38;5077668;28;20582;-70
2023/09/28 05:41:36;;;;;;;7.93;4.57;;;;;;;12.86;100.00;96516.28;5076305;28;20224;-70
2023/09/28 05:44:02;;;;;;;6.63;4.07;;;;;;;12.85;100.00;96511.16;5077353;28;20220;-70
2023/09/28 05:46:29;;;;;;;7.70;4.00;;;;;;;12.83;100.00;96513.97;5075880;28;20637;-70
2023/09/28 05:48:56;;;;;;;10.03;3.93;;;;;;;12.88;100.00;96516.09;5077506;28;20207;-70
2023/09/28 05:51:22;;;;;;;8.53;4.03;;;;;;;12.97;100.00;96507.03;5076479;28;20223;-70
2023/09/28 05:53:52;;;;;;;6.40;3.97;;;;;;;13.16;100.00;96512.59;5076325;28;20196;-70
2023/09/28 05:56:18;;;;;;;11.10;4.83;;;;;;;13.03;100.00;96519.53;5077400;28;20199;-70
2023/09/28 05:58:46;;;;;;;9.20;5.00;;;;;;;13.29;100.00;96518.03;5075721;28;20206;-70
2023/09/28 06:01:13;;;;;;;8.57;4.27;;;;;;;13.25;100.00;96529.16;5077644;28;20325;-70
2023/09/28 06:03:40;;;;;;;9.60;4.80;;;;;;;13.27;100.00;96527.97;5075423;28;20220;-70
2023/09/28 06:06:15;;;;;;;7.80;4.80;;;;;;;13.56;100.00;96530.56;5076761;28;20199;-70
2023/09/28 06:08:42;;;;;;;9.80;5.17;;;;;;;13.43;100.00;96536.50;5076370;28;20206;-70
2023/09/28 06:11:11;;;;;;;9.70;4.03;;;;;;;13.66;100.00;96531.88;5076784;28;20220;-70
2023/09/28 06:13:38;;;;;;;8.80;4.17;;;;;;;13.49;100.00;96535.78;5076055;28;20211;-70
2023/09/28 06:16:06;;;;;;;8.80;4.47;;;;;;;13.47;100.00;96532.47;5075833;28;20210;-70
2023/09/28 06:18:33;;;;;;;8.23;4.43;;;;;;;13.50;100.00;96537.44;5076889;28;20244;-70
2023/09/28 06:21:00;;;;;;;9.02;4.72;;;;;;;13.56;100.00;96547.25;5076252;28;20223;-70
2023/09/28 06:23:27;;;;;;;8.23;4.93;;;;;;;13.66;100.00;96547.75;5075833;28;20871;-70
2023/09/28 06:25:53;;;;;;;13.63;5.10;;;;;;;13.78;100.00;96550.72;5075376;28;20234;-70
2023/09/28 06:28:23;;;;;;;10.20;4.83;;;;;;;13.85;100.00;96557.75;5076658;28;20221;-70
2023/09/28 06:30:51;;;;;;;5.50;2.97;;;;;;;14.12;100.00;96563.13;5075879;28;20381;-70
2023/09/28 06:33:20;;;;;;;5.95;2.75;;;;;;;14.39;100.00;96561.50;5076611;28;20200;-70
2023/09/28 06:35:47;;;;;;;9.93;4.50;;;;;;;14.27;100.00;96569.16;5076041;28;20217;-70
2023/09/28 06:38:13;;;;;;;17.35;6.18;;;;;;;14.27;100.00;96558.56;5075838;28;20199;-70
2023/09/28 06:40:45;;;;;;;12.52;5.57;;;;;;;14.42;100.00;96564.59;5075895;28;20219;-70
2023/09/28 06:43:11;;;;;;;12.82;6.50;;;;;;;14.31;100.00;96585.50;5075158;28;20269;-70
2023/09/28 06:45:38;;;;;;;13.40;5.75;;;;;;;14.27;100.00;96585.06;5075451;28;20202;-70
2023/09/28 06:48:07;;;;;;;8.00;4.55;;;;;;;14.43;100.00;96584.78;5075513;28;20829;-70
2023/09/28 06:50:35;;;;;;;11.27;5.40;;;;;;;14.52;100.00;96588.13;5076088;28;20228;-70
2023/09/28 06:53:02;;;;;;;9.23;4.88;;;;;;;14.34;100.00;96588.59;5075413;28;20204;-70
2023/09/28 06:55:28;;;;;;;10.60;4.95;;;;;;;14.37;100.00;96590.03;5075243;28;20618;-70
2023/09/28 06:57:55;;;;;;;9.38;4.35;;;;;;;14.49;100.00;96591.97;5076459;28;20210;-70
2023/09/28 07:00:22;;;;;;;10.85;5.38;;;;;;;14.56;100.00;96600.81;5075249;28;20284;-70
2023/09/28 07:02:49;;;;;;;9.25;4.78;;;;;;;14.77;100.00;96598.09;5075958;28;20208;-70
2023/09/28 07:05:17;;;;;;;7.18;4.47;;;;;;;14.92;100.00;96596.97;5075414;28;20342;-70
2023/09/28 07:07:46;;;;;;;14.70;5.93;;;;;;;15.08;100.00;96591.34;5075578;28;20214;-70
2023/09/28 07:10:13;;;;;;;10.55;5.30;;;;;;;14.96;100.00;96592.91;5074585;28;20219;-70
2023/09/28 07:12:40;;;;;;;12.07;5.68;;;;;;;15.18;100.00;96586.50;5075786;28;20934;-70
2023/09/28 07:15:08;;;;;;;10.45;5.38;;;;;;;15.49;100.00;96586.88;5074771;28;20204;-70
2023/09/28 07:17:36;;;;;;;16.15;5.78;;;;;;;15.70;100.00;96570.81;5075790;28;20200;-70
2023/09/28 07:20:03;;;;;;;16.73;6.95;;;;;;;15.92;100.00;96571.28;5075131;28;20265;-70
2023/09/28 07:22:30;;;;;;;14.10;6.20;;;;;;;16.07;100.00;96574.56;5075302;28;20210;-70
2023/09/28 07:24:58;;;;;;;16.38;7.93;;;;;;;16.30;100.00;96575.03;5074750;28;20230;-70
2023/09/28 07:27:31;;;;;;;12.48;6.57;;;;;;;16.15;100.00;96566.41;5075065;28;20681;-70
2023/09/28 07:29:57;;;;;;;13.32;6.60;;;;;;;16.49;100.00;96572.38;5074562;28;20257;-70
2023/09/28 07:32:24;;;;;;;11.43;6.13;;;;;;;16.80;100.00;96579.72;5074361;28;20203;-70
2023/09/28 07:34:52;;;;;;;9.63;5.22;;;;;;;16.99;100.00;96587.69;5075641;28;20191;-70
2023/09/28 07:37:19;;;;;;;10.43;5.03;;;;;;;17.32;100.00;96580.47;5074198;28;20636;-70
2023/09/28 07:39:45;;;;;;;10.52;5.22;;;;;;;17.07;100.00;96583.97;5073883;28;20211;-70
2023/09/28 07:42:13;;;;;;;9.82;5.10;;;;;;;17.19;100.00;96596.44;5074702;28;20223;-70
2023/09/28 07:44:40;;;;;;;10.48;4.50;;;;;;;16.90;100.00;96593.44;5074890;28;20225;-71
2023/09/28 07:47:08;;;;;;;10.18;4.50;;;;;;;16.99;100.00;96603.66;5073051;28;20207;-70
2023/09/28 07:49:34;;;;;;;11.27;5.70;;;;;;;16.99;100.00;96613.50;5074479;28;20434;-70
2023/09/28 07:52:02;;;;;;;11.10;4.55;;;;;;;16.96;100.00;96613.91;5074491;28;20723;-70
2023/09/28 07:54:28;;;;;;;9.02;4.18;;;;;;;17.13;100.00;96607.94;5074021;28;20200;-70
2023/09/28 07:56:55;;;;;;;9.48;4.18;;;;;;;17.10;100.00;96609.16;5074118;28;20615;-70
2023/09/28 07:59:23;;;;;;;6.90;4.03;;;;;;;17.45;100.00;96604.38;5075336;28;20207;-70
2023/09/28 08:01:50;;;;;;;10.23;5.28;;;;;;;17.41;100.00;96603.19;5074404;28;20226;-70
2023/09/28 08:04:16;;;;;;;9.88;4.30;;;;;;;17.51;100.00;96607.03;5073788;28;20219;-70
2023/09/28 08:06:43;;;;;;;9.27;4.15;;;;;;;17.31;100.00;96614.28;5073813;28;20230;-70
2023/09/28 08:09:13;;;;;;;8.77;4.93;;;;;;;17.40;100.00;96615.69;5075825;28;20249;-70
2023/09/28 08:11:40;;;;;;;10.57;4.80;;;;;;;17.46;100.00;96611.34;5073466;28;20628;-71
2023/09/28 08:14:06;;;;;;;10.10;4.63;;;;;;;17.63;100.00;96608.03;5074438;28;20253;-70
2023/09/28 08:16:34;;;;;;;9.13;4.18;;;;;;;17.64;100.00;96614.97;5074085;28;20471;-70
2023/09/28 08:19:02;;;;;;;8.77;4.20;;;;;;;17.44;100.00;96618.75;5074954;28;20576;-70
2023/09/28 08:21:29;;;;;;;9.00;4.85;;;;;;;17.65;100.00;96624.59;5072654;28;20224;-70
2023/09/28 08:23:56;;;;;;;9.95;5.22;;;;;;;17.78;100.00;96621.88;5074270;28;20246;-70
2023/09/28 08:26:22;;;;;;;9.20;4.82;;;;;;;17.83;100.00;96619.41;5073325;28;20384;-71
2023/09/28 08:28:49;;;;;;;11.98;4.85;;;;;;;17.87;100.00;96612.63;5075213;28;20200;-70
2023/09/28 08:31:15;;;;;;;9.50;4.45;;;;;;;18.12;100.00;96611.66;5074286;28;20219;-70
2023/09/28 08:33:43;;;;;;;10.48;4.40;;;;;;;18.19;100.00;96604.47;5073802;28;20203;-70
2023/09/28 08:36:10;;;;;;;10.93;5.07;;;;;;;18.13;100.00;96604.50;5073453;28;20200;-70
2023/09/28 08:38:37;;;;;;;6.20;3.30;;;;;;;18.26;100.00;96615.09;5074499;28;20200;-70
2023/09/28 08:41:06;;;;;;;8.60;4.55;;;;;;;18.75;100.00;96614.13;5074590;28;20598;-70
2023/09/28 08:43:41;;;;;;;7.07;3.83;;;;;;;18.84;100.00;96620.81;5073243;28;20646;-70
2023/09/28 08:46:11;;;;;;;9.05;4.38;;;;;;;19.03;100.00;96630.53;5073883;28;20261;-70
2023/09/28 08:48:41;;;;;;;12.68;4.57;;;;;;;19.04;100.00;96640.16;5073922;28;20207;-70
2023/09/28 08:51:12;;;;;;;5.88;3.53;;;;;;;19.40;100.00;96640.25;5076940;28;20226;-71
2023/09/28 08:53:39;;;;;;;10.85;4.68;;;;;;;19.37;100.00;96630.81;5077206;28;20597;-71
2023/09/28 08:56:06;;;;;;;8.52;4.28;;;;;;;19.35;100.00;96626.75;5077765;28;20245;-71
2023/09/28 08:58:34;;;;;;;9.23;3.33;;;;;;;19.54;100.00;96631.03;5077460;28;20307;-71
2023/09/28 09:01:02;;;;;;;5.47;3.08;;;;;;;19.55;100.00;96630.00;5078133;28;20246;-71
2023/09/28 09:03:28;;;;;;;6.60;3.13;;;;;;;19.55;100.00;96630.00;5076964;28;20696;-70
2023/09/28 09:05:58;;;;;;;7.63;3.60;;;;;;;19.97;100.00;96625.41;5075959;28;20225;-70
2023/09/28 09:08:27;;;;;;;6.85;3.38;;;;;;;20.10;100.00;96617.22;5076622;28;20206;-70
2023/09/28 09:10:54;;;;;;;11.25;3.45;;;;;;;20.18;100.00;96615.03;5076191;28;20276;-71
2023/09/28 09:13:21;;;;;;;6.32;3.25;;;;;;;20.27;100.00;96604.81;5077969;28;20359;-71
2023/09/28 09:15:49;;;;;;;7.78;3.65;;;;;;;20.55;100.00;96619.22;5076076;28;20212;-71
2023/09/28 09:18:19;;;;;;;7.80;3.50;;;;;;;20.72;100.00;96609.50;5077469;28;20627;-71
2023/09/28 09:20:47;;;;;;;9.43;3.35;;;;;;;20.63;100.00;96600.13;5076613;28;20254;-71
2023/09/28 09:23:14;;;;;;;5.47;3.30;;;;;;;20.58;100.00;96609.91;5078017;28;20806;-71
2023/09/28 09:25:43;;;;;;;10.13;3.85;;;;;;;20.80;100.00;96600.31;5075114;28;20222;-71
2023/09/28 09:28:10;;;;;;;6.55;3.10;;;;;;;20.74;100.00;96601.25;5076440;28;20680;-71
2023/09/28 09:30:37;;;;;;;5.65;3.08;;;;;;;21.05;100.00;96610.59;5077298;28;20375;-71
2023/09/28 09:33:06;;;;;;;4.30;2.53;;;;;;;21.09;100.00;96608.25;5077248;28;20219;-71
2023/09/28 09:35:33;;;;;;;8.85;3.05;;;;;;;21.23;100.00;96610.50;5076854;28;20196;-71
2023/09/28 09:38:00;;;;;;;10.40;2.88;;;;;;;21.45;100.00;96611.50;5075865;28;20211;-71
2023/09/28 09:40:27;;;;;;;6.72;3.22;;;;;;;21.62;100.00;96618.63;5076650;28;20713;-71
2023/09/28 09:42:56;;;;;;;4.28;2.25;;;;;;;21.85;100.00;96598.97;5075541;28;20484;-71
2023/09/28 09:45:25;;;;;;;6.90;2.60;;;;;;;21.81;100.00;96595.16;5076295;28;20880;-71
2023/09/28 09:47:51;;;;;;;4.57;2.22;;;;;;;21.90;100.00;96588.34;5076186;28;20908;-71
2023/09/28 09:50:18;;;;;;;5.47;2.53;;;;;;;22.26;100.00;96586.13;5077079;28;20390;-71
2023/09/28 09:52:46;;;;;;;4.60;2.13;;;;;;;22.12;100.00;96601.69;5074575;28;20202;-71
2023/09/28 09:55:14;;;;;;;8.55;2.67;;;;;;;22.26;100.00;96599.56;5074682;28;20196;-71
2023/09/28 09:57:43;;;;;;;6.18;2.35;;;;;;;22.56;100.00;96603.59;5076694;28;20200;-71
2023/09/28 10:00:15;;;;;;;4.60;1.88;;;;;;;22.78;100.00;96602.66;5076854;28;20192;-71
2023/09/28 10:02:44;;;;;;;3.35;1.95;;;;;;;22.77;100.00;96609.09;5076739;28;20207;-71
2023/09/28 10:05:13;;;;;;;7.75;2.60;;;;;;;22.66;100.00;96606.47;5075481;28;20219;-71
2023/09/28 10:07:42;;;;;;;10.23;2.03;;;;;;;22.82;100.00;96605.66;5076995;28;20258;-71
2023/09/28 10:10:09;;;;;;;4.20;2.03;;;;;;;22.81;100.00;96609.41;5076501;28;20303;-71
2023/09/28 10:12:37;;;;;;;3.15;1.75;;;;;;;22.85;100.00;96599.81;5077313;28;20200;-71
2023/09/28 10:15:04;;;;;;;3.90;1.90;;;;;;;23.00;100.00;96608.13;5076077;28;20680;-71
2023/09/28 10:17:32;;;;;;;3.95;1.80;;;;;;;23.23;100.00;96613.34;5076103;28;20222;-71
2023/09/28 10:20:01;;;;;;;3.80;1.83;;;;;;;23.18;100.00;96600.66;5075990;28;20209;-71
2023/09/28 10:22:28;;;;;;;3.97;1.65;;;;;;;23.31;100.00;96608.38;5076714;28;20585;-71
2023/09/28 10:24:54;;;;;;;3.22;2.03;;;;;;;23.38;100.00;96615.22;5076804;28;20247;-71
2023/09/28 10:27:21;;;;;;;3.63;2.15;;;;;;;23.46;100.00;96609.41;5075293;28;21187;-71
2023/09/28 10:29:47;;;;;;;3.60;1.98;;;;;;;23.21;99.47;96618.16;5076457;28;20204;-71
2023/09/28 10:32:27;;;;;;;2.42;1.60;;;;;;;23.42;92.98;96623.56;5076763;28;20227;-71
2023/09/28 10:35:27;;;;;;;2.90;1.60;;;;;;;23.72;92.95;96615.97;5076923;28;20195;-70
2023/09/28 10:38:31;;;;;;;6.20;2.08;;;;;;;23.81;91.35;96615.28;5075415;28;20204;-71
2023/09/28 10:41:06;;;;;;;4.70;1.90;;;;;;;23.87;89.37;96613.47;5076387;28;20227;-71
2023/09/28 10:43:35;;;;;;;2.72;1.90;;;;;;;23.75;92.51;96616.28;5075678;28;20195;-71
2023/09/28 10:46:03;;;;;;;2.40;1.80;;;;;;;23.95;96.39;96620.06;5075309;28;21298;-71
2023/09/28 10:48:32;;;;;;;3.42;1.58;;;;;;;24.09;90.72;96617.78;5076915;28;20290;-71
2023/09/28 10:51:01;;;;;;;2.80;1.60;;;;;;;24.44;88.81;96619.03;5075748;28;20238;-68
2023/09/28 10:53:28;;;;;;;3.60;1.65;;;;;;;24.27;87.39;96617.47;5075843;28;20398;-66
2023/09/28 10:55:54;;;;;;;3.80;1.40;;;;;;;24.41;86.41;96626.81;5075673;28;20227;-68
2023/09/28 10:58:21;;;;;;;4.03;1.85;;;;;;;24.39;89.76;96610.91;5076099;28;20595;-67
2023/09/28 11:00:47;;;;;;;3.45;1.73;;;;;;;24.45;87.51;96615.25;5075094;28;20804;-67
2023/09/28 11:03:14;;;;;;;4.10;2.03;;;;;;;24.61;87.32;96608.97;5076788;28;21040;-67
2023/09/28 11:05:41;;;;;;;6.28;1.75;;;;;;;24.88;81.92;96615.94;5074740;28;20216;-67
2023/09/28 11:08:09;;;;;;;3.20;1.30;;;;;;;25.19;81.52;96617.88;5075326;28;20204;-67
2023/09/28 11:10:36;;;;;;;4.57;1.73;;;;;;;25.11;79.91;96612.94;5073840;28;20226;-67
2023/09/28 11:13:02;;;;;;;3.90;1.95;;;;;;;24.70;82.76;96610.94;5073152;28;20566;-67
2023/09/28 11:15:29;;;;;;;2.15;1.30;;;;;;;24.76;81.94;96615.31;5073488;28;20192;-69
2023/09/28 11:17:57;;;;;;;4.30;1.58;;;;;;;24.71;82.73;96611.75;5074420;28;20705;-66
2023/09/28 11:20:23;;;;;;;3.17;1.65;;;;;;;24.87;78.68;96611.66;5074051;28;20777;-67
2023/09/28 11:22:55;;;;;;;2.67;1.50;;;;;;;24.76;74.98;96606.41;5073984;28;20325;-68
2023/09/28 11:25:25;;;;;;;2.05;1.10;;;;;;;24.98;74.15;96599.84;5073821;28;20309;-68